createdAt,value
2022-10-28T00:02:09.255Z,100717.44
2022-10-28T00:04:37.054Z,100727.78
2022-10-28T00:07:04.897Z,100726.25
2022-10-28T00:09:34.805Z,100714.47
2022-10-28T00:12:02.360Z,100710.06
2022-10-28T00:14:30.362Z,100710.25
2022-10-28T00:16:58.188Z,100712.28
2022-10-28T00:19:26.010Z,100713.69
2022-10-28T00:21:53.702Z,100705.72
2022-10-28T00:24:21.389Z,100717.31
2022-10-28T00:26:50.397Z,100717.84
2022-10-28T00:29:19.692Z,100714.59
2022-10-28T00:31:48.077Z,100707.91
2022-10-28T00:34:16.629Z,100713.47
2022-10-28T00:36:45.640Z,100720.03
2022-10-28T00:39:14.009Z,100734.50
2022-10-28T00:41:43.091Z,100737.28
2022-10-28T00:44:29.772Z,100734.13
2022-10-28T00:46:59.058Z,100737.19
2022-10-28T00:49:29.006Z,100730.09
2022-10-28T00:51:58.120Z,100735.81
2022-10-28T00:54:25.946Z,100726.88
2022-10-28T00:56:55.828Z,100731.41
2022-10-28T00:59:26.119Z,100733.91
2022-10-28T01:01:53.981Z,100723.31
2022-10-28T01:04:23.687Z,100722.38
2022-10-28T01:06:52.364Z,100712.25
2022-10-28T01:15:13.699Z,100715.94
2022-10-28T01:17:47.521Z,100712.81
2022-10-28T01:20:39.675Z,100709.84
2022-10-28T01:23:14.625Z,100721.28
2022-10-28T01:25:53.934Z,100721.78
2022-10-28T01:28:35.278Z,100703.94
2022-10-28T01:31:14.342Z,100715.22
2022-10-28T01:33:44.611Z,100725.34
2022-10-28T01:36:14.579Z,100709.41
2022-10-28T01:38:45.840Z,100701.34
2022-10-28T01:41:16.785Z,100697.13
2022-10-28T01:43:48.271Z,100704.06
2022-10-28T01:46:20.275Z,100703.13
2022-10-28T01:48:51.535Z,100713.03
2022-10-28T01:51:22.780Z,100716.78
2022-10-28T01:53:53.093Z,100707.44
2022-10-28T01:56:24.685Z,100694.78
2022-10-28T01:58:55.152Z,100693.66
2022-10-28T02:01:25.204Z,100703.56
2022-10-28T02:03:53.269Z,100706.31
2022-10-28T02:06:24.844Z,100700.63
2022-10-28T02:09:07.476Z,100696.13
2022-10-28T02:11:46.886Z,100700.28
2022-10-28T02:14:21.759Z,100689.44
2022-10-28T02:16:51.633Z,100693.25
2022-10-28T02:19:26.844Z,100697.75
2022-10-28T02:21:59.424Z,100687.88
2022-10-28T02:24:32.736Z,100687.50
2022-10-28T02:27:07.907Z,100688.66
2022-10-28T02:29:39.492Z,100683.66
2022-10-28T02:32:10.233Z,100685.69
2022-10-28T02:34:41.507Z,100693.59
2022-10-28T02:37:12.237Z,100681.06
2022-10-28T02:39:45.176Z,100690.88
2022-10-28T02:42:15.096Z,100687.88
2022-10-28T02:44:46.566Z,100680.16
2022-10-28T02:47:18.306Z,100682.63
2022-10-28T02:49:49.100Z,100681.91
2022-10-28T02:52:18.252Z,100674.66
2022-10-28T02:54:50.225Z,100670.84
2022-10-28T02:57:19.269Z,100661.59
2022-10-28T02:59:52.459Z,100656.44
2022-10-28T03:02:21.422Z,100647.94
2022-10-28T03:04:49.059Z,100640.00
2022-10-28T03:07:17.175Z,100642.53
2022-10-28T03:09:44.936Z,100637.69
2022-10-28T03:12:12.810Z,100629.09
2022-10-28T03:14:40.507Z,100632.47
2022-10-28T03:17:08.803Z,100627.66
2022-10-28T03:19:39.780Z,100629.84
2022-10-28T03:22:07.761Z,100624.22
2022-10-28T03:24:35.538Z,100614.59
2022-10-28T03:27:03.242Z,100623.78
2022-10-28T03:29:31.111Z,100620.38
2022-10-28T03:31:58.875Z,100629.91
2022-10-28T03:34:26.756Z,100632.53
2022-10-28T03:36:55.839Z,100632.41
2022-10-28T03:39:23.754Z,100632.41
2022-10-28T03:41:51.391Z,100626.06
2022-10-28T03:44:19.427Z,100634.06
2022-10-28T03:46:47.300Z,100627.72
2022-10-28T03:49:15.098Z,100616.44
2022-10-28T03:51:42.952Z,100606.72
2022-10-28T03:54:12.210Z,100599.50
2022-10-28T03:56:40.692Z,100605.25
2022-10-28T03:59:10.068Z,100608.41
2022-10-28T04:01:38.239Z,100629.44
2022-10-28T04:04:06.200Z,100635.88
2022-10-28T04:06:33.806Z,100634.13
2022-10-28T04:09:01.527Z,100629.91
2022-10-28T04:11:30.741Z,100628.47
2022-10-28T04:13:58.390Z,100630.72
2022-10-28T04:16:26.793Z,100620.59
2022-10-28T04:18:55.544Z,100615.44
2022-10-28T04:21:24.327Z,100623.81
2022-10-28T04:23:52.050Z,100635.06
2022-10-28T04:26:19.876Z,100623.78
2022-10-28T04:28:48.998Z,100622.72
2022-10-28T04:31:16.784Z,100632.72
2022-10-28T04:33:44.436Z,100636.44
2022-10-28T04:36:12.062Z,100639.56
2022-10-28T04:38:39.949Z,100630.97
2022-10-28T04:41:07.557Z,100620.84
2022-10-28T04:43:35.653Z,100626.69
2022-10-28T04:46:06.143Z,100621.75
2022-10-28T04:48:33.985Z,100624.91
2022-10-28T04:51:02.225Z,100622.28
2022-10-28T04:53:29.999Z,100625.50
2022-10-28T04:55:59.052Z,100622.41
2022-10-28T04:58:26.945Z,100632.03
2022-10-28T05:00:56.921Z,100626.81
2022-10-28T05:03:25.968Z,100623.94
2022-10-28T05:05:53.736Z,100627.88
2022-10-28T05:08:21.458Z,100635.97
2022-10-28T05:10:51.144Z,100638.81
2022-10-28T05:13:18.812Z,100637.03
2022-10-28T05:15:48.564Z,100633.13
2022-10-28T05:18:16.504Z,100631.22
2022-10-28T05:20:45.689Z,100633.72
2022-10-28T05:23:15.742Z,100628.34
2022-10-28T05:25:43.867Z,100628.22
2022-10-28T05:28:11.783Z,100626.47
2022-10-28T05:30:39.998Z,100623.00
2022-10-28T05:33:07.657Z,100628.72
2022-10-28T05:35:35.450Z,100617.31
2022-10-28T05:38:04.428Z,100608.75
2022-10-28T05:40:32.711Z,100604.22
2022-10-28T05:43:00.466Z,100601.38
2022-10-28T05:48:01.487Z,100592.75
2022-10-28T05:50:29.857Z,100593.13
2022-10-28T05:53:00.400Z,100594.31
2022-10-28T05:55:30.081Z,100600.28
2022-10-28T05:57:58.258Z,100603.00
2022-10-28T06:00:27.258Z,100605.03
2022-10-28T06:03:02.605Z,100607.53
2022-10-28T06:05:30.960Z,100617.19
2022-10-28T06:07:58.870Z,100615.50
2022-10-28T06:10:26.767Z,100611.56
2022-10-28T06:12:55.933Z,100610.94
2022-10-28T06:15:24.070Z,100617.97
2022-10-28T06:17:55.082Z,100618.03
2022-10-28T06:20:23.000Z,100627.53
2022-10-28T06:22:51.440Z,100628.97
2022-10-28T06:25:20.392Z,100632.50
2022-10-28T06:27:52.357Z,100628.81
2022-10-28T06:30:22.028Z,100628.56
2022-10-28T06:32:51.199Z,100634.72
2022-10-28T06:35:19.106Z,100639.44
2022-10-28T06:37:47.209Z,100630.25
2022-10-28T06:40:15.136Z,100634.03
2022-10-28T06:42:43.170Z,100633.69
2022-10-28T06:45:11.431Z,100634.28
2022-10-28T06:47:42.266Z,100643.81
2022-10-28T06:50:10.542Z,100644.41
2022-10-28T06:52:38.596Z,100639.16
2022-10-28T06:55:07.301Z,100646.13
2022-10-28T06:57:35.125Z,100635.63
2022-10-28T07:00:03.151Z,100633.06
2022-10-28T07:02:31.907Z,100625.47
2022-10-28T07:05:01.353Z,100622.31
2022-10-28T07:07:29.233Z,100622.66
2022-10-28T07:09:58.531Z,100627.63
2022-10-28T07:12:27.988Z,100628.19
2022-10-28T07:14:56.467Z,100636.91
2022-10-28T07:17:24.432Z,100642.53
2022-10-28T07:19:52.795Z,100647.78
2022-10-28T07:22:25.483Z,100655.63
2022-10-28T07:24:54.786Z,100648.72
2022-10-28T07:27:22.668Z,100659.06
2022-10-28T07:29:50.687Z,100662.25
2022-10-28T07:32:18.476Z,100655.41
2022-10-28T07:34:47.275Z,100663.16
2022-10-28T07:37:15.289Z,100663.72
2022-10-28T07:39:44.682Z,100665.50
2022-10-28T07:42:12.704Z,100660.00
2022-10-28T07:44:40.845Z,100663.50
2022-10-28T07:47:08.918Z,100668.38
2022-10-28T07:49:37.007Z,100664.81
2022-10-28T07:52:05.050Z,100673.06
2022-10-28T07:54:35.308Z,100683.50
2022-10-28T07:57:04.828Z,100681.59
2022-10-28T07:59:32.893Z,100681.19
2022-10-28T08:02:00.743Z,100669.50
2022-10-28T08:04:30.684Z,100677.81
2022-10-28T08:07:00.082Z,100677.56
2022-10-28T08:09:29.976Z,100678.97
2022-10-28T08:11:59.040Z,100686.16
2022-10-28T08:14:28.406Z,100687.31
2022-10-28T08:16:56.823Z,100689.38
2022-10-28T08:19:24.788Z,100689.72
2022-10-28T08:21:52.578Z,100691.84
2022-10-28T08:24:20.735Z,100697.03
2022-10-28T08:26:48.936Z,100687.78
2022-10-28T08:29:16.978Z,100707.16
2022-10-28T08:31:46.212Z,100694.13
2022-10-28T08:34:14.172Z,100696.63
2022-10-28T08:36:42.296Z,100702.97
2022-10-28T08:39:10.416Z,100696.31
2022-10-28T08:41:40.554Z,100694.03
2022-10-28T08:44:21.769Z,100691.47
2022-10-28T08:46:57.296Z,100684.88
2022-10-28T08:49:25.592Z,100681.03
2022-10-28T08:51:56.258Z,100692.41
2022-10-28T08:54:26.364Z,100693.34
2022-10-28T08:56:56.326Z,100695.31
2022-10-28T08:59:27.186Z,100686.41
2022-10-28T09:01:59.273Z,100692.63
2022-10-28T09:04:31.215Z,100695.09
2022-10-28T09:06:59.315Z,100701.19
2022-10-28T09:09:27.317Z,100701.78
2022-10-28T09:12:05.345Z,100699.16
2022-10-28T09:14:44.940Z,100693.91
2022-10-28T09:17:18.370Z,100696.31
2022-10-28T09:19:48.862Z,100689.47
2022-10-28T09:22:21.911Z,100691.06
2022-10-28T09:24:52.699Z,100686.53
2022-10-28T09:27:29.832Z,100697.69
2022-10-28T09:30:04.824Z,100706.34
2022-10-28T09:32:39.064Z,100706.13
2022-10-28T09:35:08.331Z,100696.97
2022-10-28T09:37:38.972Z,100697.13
2022-10-28T09:40:15.293Z,100686.28
2022-10-28T09:42:47.257Z,100683.88
2022-10-28T09:45:17.829Z,100694.09
2022-10-28T09:47:51.225Z,100688.59
2022-10-28T09:50:22.739Z,100705.13
2022-10-28T09:52:54.719Z,100696.72
2022-10-28T09:55:23.688Z,100710.78
2022-10-28T09:57:51.582Z,100702.34
2022-10-28T10:00:19.951Z,100708.78
2022-10-28T10:02:51.687Z,100711.84
2022-10-28T10:05:19.962Z,100715.81
2022-10-28T10:07:51.092Z,100720.53
2022-10-28T10:10:27.252Z,100710.75
2022-10-28T10:13:00.248Z,100709.69
2022-10-28T10:15:30.898Z,100720.28
2022-10-28T10:18:01.983Z,100728.63
2022-10-28T10:20:42.218Z,100732.47
2022-10-28T10:23:22.358Z,100734.00
2022-10-28T10:25:55.281Z,100726.41
2022-10-28T10:28:23.835Z,100715.22
2022-10-28T10:30:53.729Z,100716.59
2022-10-28T10:33:28.538Z,100713.00
2022-10-28T10:36:02.973Z,100710.03
2022-10-28T10:38:32.611Z,100701.88
2022-10-28T10:41:02.012Z,100706.72
2022-10-28T10:43:34.104Z,100697.38
2022-10-28T10:46:03.495Z,100685.16
2022-10-28T10:48:36.135Z,100689.06
2022-10-28T10:51:10.076Z,100684.34
2022-10-28T10:53:39.602Z,100685.25
2022-10-28T10:56:09.636Z,100669.84
2022-10-28T10:58:40.154Z,100682.28
2022-10-28T11:01:09.752Z,100672.19
2022-10-28T11:03:41.197Z,100665.59
2022-10-28T11:06:25.409Z,100669.81
2022-10-28T11:08:59.606Z,100672.19
2022-10-28T11:11:35.953Z,100673.00
2022-10-28T11:14:05.107Z,100668.75
2022-10-28T11:16:36.111Z,100667.41
2022-10-28T11:19:16.678Z,100664.28
2022-10-28T11:21:50.775Z,100654.94
2022-10-28T11:24:26.094Z,100653.91
2022-10-28T11:26:57.762Z,100654.88
2022-10-28T11:29:25.677Z,100647.03
2022-10-28T11:32:04.128Z,100645.06
2022-10-28T11:37:32.632Z,100645.13
2022-10-28T11:40:13.893Z,100646.66
2022-10-28T11:42:48.002Z,100640.13
2022-10-28T11:45:22.049Z,100640.69
2022-10-28T11:47:58.450Z,100628.97
2022-10-28T11:50:52.871Z,100626.66
2022-10-28T11:53:27.805Z,100624.13
2022-10-28T11:55:59.639Z,100609.69
2022-10-28T11:58:33.578Z,100619.97
2022-10-28T12:01:08.922Z,100606.81
2022-10-28T12:04:03.932Z,100612.47
2022-10-28T12:06:39.721Z,100605.25
2022-10-28T12:09:24.753Z,100614.03
2022-10-28T12:12:00.916Z,100595.47
2022-10-28T12:14:32.847Z,100591.09
2022-10-28T12:17:04.956Z,100579.91
2022-10-28T12:19:35.155Z,100578.44
2022-10-28T12:22:11.954Z,100575.69
2022-10-28T12:24:41.091Z,100579.16
2022-10-28T12:27:18.176Z,100577.66
2022-10-28T12:29:50.042Z,100580.25
2022-10-28T12:32:21.425Z,100571.00
2022-10-28T12:34:52.925Z,100566.44
2022-10-28T12:37:23.527Z,100560.28
2022-10-28T12:39:55.649Z,100559.94
2022-10-28T12:42:27.797Z,100573.56
2022-10-28T12:44:57.409Z,100575.81
2022-10-28T12:47:28.791Z,100567.84
2022-10-28T12:50:04.334Z,100566.38
2022-10-28T12:52:39.462Z,100565.97
2022-10-28T12:55:12.424Z,100557.03
2022-10-28T12:57:45.998Z,100556.75
2022-10-28T13:00:19.246Z,100547.63
2022-10-28T13:02:50.957Z,100547.72
2022-10-28T13:05:22.149Z,100554.44
2022-10-28T13:08:05.497Z,100553.53
2022-10-28T13:10:38.693Z,100556.44
2022-10-28T13:13:26.163Z,100546.06
2022-10-28T13:16:01.259Z,100542.81
2022-10-28T13:18:48.370Z,100544.72
2022-10-28T13:21:23.293Z,100536.88
2022-10-28T13:23:56.689Z,100542.84
2022-10-28T13:26:28.315Z,100551.72
2022-10-28T13:28:58.177Z,100545.00
2022-10-28T13:31:37.544Z,100542.31
2022-10-28T13:34:06.012Z,100546.75
2022-10-28T13:36:36.419Z,100542.31
2022-10-28T13:39:09.008Z,100557.25
2022-10-28T13:41:37.225Z,100550.06
2022-10-28T13:44:16.358Z,100546.78
2022-10-28T13:47:02.985Z,100536.09
2022-10-28T13:49:35.874Z,100529.88
2022-10-28T13:52:18.534Z,100535.69
2022-10-28T13:54:55.372Z,100516.94
2022-10-28T13:57:26.950Z,100513.66
2022-10-28T13:59:57.478Z,100515.06
2022-10-28T14:02:38.157Z,100526.00
2022-10-28T14:05:34.800Z,100524.38
2022-10-28T14:08:05.873Z,100524.00
2022-10-28T14:10:41.627Z,100527.72
2022-10-28T14:13:17.425Z,100536.50
2022-10-28T14:21:18.281Z,100539.16
2022-10-28T14:27:13.413Z,100533.91
2022-10-28T14:29:45.788Z,100544.00
2022-10-28T14:32:34.984Z,100553.41
2022-10-28T14:35:04.506Z,100539.28
2022-10-28T14:37:56.556Z,100536.09
2022-10-28T14:40:33.656Z,100536.94
2022-10-28T14:43:08.293Z,100531.19
2022-10-28T14:45:42.241Z,100529.94
2022-10-28T14:48:24.065Z,100532.81
2022-10-28T14:50:54.298Z,100535.94
2022-10-28T14:53:31.760Z,100533.41
2022-10-28T14:56:12.969Z,100534.03
2022-10-28T14:58:43.200Z,100532.81
2022-10-28T15:01:20.834Z,100537.63
2022-10-28T15:03:49.942Z,100533.59
2022-10-28T15:06:41.588Z,100529.16
2022-10-28T15:09:15.770Z,100524.47
2022-10-28T15:11:51.163Z,100536.47
2022-10-28T15:17:16.221Z,100521.50
2022-10-28T15:19:45.518Z,100530.47
2022-10-28T15:22:15.798Z,100526.78
2022-10-28T15:24:47.127Z,100529.53
2022-10-28T15:27:17.266Z,100536.22
2022-10-28T15:29:45.636Z,100544.22
2022-10-28T15:32:19.025Z,100543.25
2022-10-28T15:34:47.043Z,100544.63
2022-10-28T15:37:18.951Z,100540.69
2022-10-28T15:39:58.658Z,100543.34
2022-10-28T15:42:39.400Z,100540.38
2022-10-28T15:45:09.039Z,100544.38
2022-10-28T15:47:38.007Z,100533.28
2022-10-28T15:50:25.336Z,100531.63
2022-10-28T15:52:55.264Z,100534.63
2022-10-28T15:56:02.300Z,100539.94
2022-10-28T15:58:33.882Z,100533.31
2022-10-28T16:01:01.955Z,100535.09
2022-10-28T16:03:42.298Z,100538.53
2022-10-28T16:06:24.539Z,100535.28
2022-10-28T16:09:16.510Z,100541.59
2022-10-28T16:11:46.469Z,100539.31
2022-10-28T16:14:37.024Z,100538.91
2022-10-28T16:17:14.274Z,100547.63
2022-10-28T16:19:44.309Z,100551.06
2022-10-28T16:22:15.640Z,100548.44
2022-10-28T16:24:43.890Z,100547.56
2022-10-28T17:23:24.279Z,100571.88
2022-10-28T17:26:01.014Z,100569.31
2022-10-28T17:28:29.368Z,100579.28
2022-10-28T17:31:02.794Z,100583.66
2022-10-28T17:33:30.901Z,100582.06
2022-10-28T17:36:02.525Z,100593.00
2022-10-28T17:38:31.202Z,100593.66
2022-10-28T17:41:00.708Z,100593.50
2022-10-28T17:43:29.052Z,100598.06
2022-10-28T17:46:04.086Z,100607.19
2022-10-28T17:48:32.295Z,100606.53
2022-10-28T17:51:00.238Z,100610.44
2022-10-28T17:53:28.287Z,100607.38
2022-10-28T17:55:58.451Z,100619.06
2022-10-28T17:58:28.378Z,100613.50
2022-10-28T18:00:59.829Z,100619.53
2022-10-28T18:03:32.775Z,100614.53
2022-10-28T18:06:04.390Z,100621.38
2022-10-28T18:08:33.600Z,100617.41
2022-10-28T18:11:01.908Z,100619.50
2022-10-28T18:13:32.099Z,100626.59
2022-10-28T18:16:05.111Z,100617.78
2022-10-28T18:18:37.437Z,100621.69
2022-10-28T18:21:09.706Z,100627.44
2022-10-28T18:23:37.635Z,100621.84
2022-10-28T18:26:06.566Z,100615.06
2022-10-28T18:28:36.817Z,100617.41
2022-10-28T18:31:05.767Z,100621.00
2022-10-28T18:33:34.647Z,100624.91
2022-10-28T18:36:05.931Z,100622.75
2022-10-28T18:38:34.531Z,100624.44
2022-10-28T18:41:02.690Z,100623.44
2022-10-28T18:43:31.054Z,100621.47
2022-10-28T18:46:03.129Z,100624.91
2022-10-28T18:48:31.609Z,100621.94
2022-10-28T18:51:03.611Z,100624.59
2022-10-28T18:53:31.615Z,100622.25
2022-10-28T18:56:01.804Z,100625.84
2022-10-28T18:58:29.778Z,100629.94
2022-10-28T19:01:06.401Z,100628.94
2022-10-28T19:03:34.464Z,100640.09
2022-10-28T19:06:03.470Z,100624.25
2022-10-28T19:08:31.486Z,100623.66
2022-10-28T19:11:00.195Z,100627.13
2022-10-28T19:13:28.354Z,100618.69
2022-10-28T19:15:56.185Z,100629.78
2022-10-28T19:18:26.125Z,100624.06
2022-10-28T19:20:56.815Z,100625.31
2022-10-28T19:23:25.201Z,100613.16
2022-10-28T19:25:56.915Z,100617.41
2022-10-28T19:28:24.932Z,100613.16
2022-10-28T19:31:00.395Z,100622.97
2022-10-28T19:33:29.944Z,100629.13
2022-10-28T19:36:02.008Z,100637.25
2022-10-28T19:38:33.703Z,100642.16
2022-10-28T19:41:06.085Z,100642.06
2022-10-28T19:43:34.376Z,100649.59
2022-10-28T19:46:06.094Z,100646.72
2022-10-28T19:48:35.532Z,100650.38
2022-10-28T19:51:03.499Z,100655.16
2022-10-28T19:53:31.430Z,100657.53
2022-10-28T19:56:00.248Z,100654.97
2022-10-28T19:58:28.922Z,100651.94
2022-10-28T20:01:01.119Z,100655.38
2022-10-28T20:03:34.212Z,100662.53
2022-10-28T20:06:07.564Z,100657.28
2022-10-28T20:08:36.679Z,100665.06
2022-10-28T20:11:10.923Z,100658.34
2022-10-28T20:13:40.388Z,100665.06
2022-10-28T20:16:24.664Z,100649.72
2022-10-28T20:18:58.195Z,100661.03
2022-10-28T20:21:28.878Z,100660.63
2022-10-28T20:23:57.506Z,100652.59
2022-10-28T20:26:26.288Z,100655.34
2022-10-28T20:28:54.460Z,100655.91
2022-10-28T20:31:23.805Z,100654.41
2022-10-28T20:33:55.422Z,100669.66
2022-10-28T20:36:24.947Z,100673.41
2022-10-28T20:38:57.997Z,100681.69
2022-10-28T20:41:26.776Z,100673.75
2022-10-28T20:43:55.318Z,100678.78
2022-10-28T20:46:25.007Z,100683.47
2022-10-28T20:48:54.667Z,100682.19
2022-10-28T20:51:26.490Z,100689.81
2022-10-28T20:53:54.881Z,100685.69
2022-10-28T20:56:25.877Z,100687.94
2022-10-28T20:58:54.451Z,100689.84
2022-10-28T21:01:23.819Z,100683.91
2022-10-28T21:03:54.308Z,100692.22
2022-10-28T21:06:23.120Z,100684.31
2022-10-28T21:08:51.237Z,100691.91
2022-10-28T21:11:20.073Z,100699.13
2022-10-28T21:13:53.207Z,100694.25
2022-10-28T21:16:21.820Z,100689.53
2022-10-28T21:18:49.743Z,100689.94
2022-10-28T21:21:18.564Z,100705.72
2022-10-28T21:23:46.537Z,100697.44
2022-10-28T21:26:14.699Z,100712.09
2022-10-28T21:28:42.667Z,100714.97
2022-10-28T21:31:13.037Z,100711.72
2022-10-28T21:33:44.302Z,100712.22
2022-10-28T21:36:12.813Z,100712.75
2022-10-28T21:38:41.047Z,100705.13
2022-10-28T21:41:10.926Z,100709.78
2022-10-28T21:43:39.722Z,100702.59
2022-10-28T21:46:08.213Z,100700.53
2022-10-28T21:48:37.919Z,100700.84
2022-10-28T21:51:09.895Z,100703.75
2022-10-28T21:53:42.764Z,100710.41
2022-10-28T21:56:16.630Z,100724.50
2022-10-28T21:58:46.305Z,100718.38
2022-10-28T22:01:15.245Z,100716.91
2022-10-28T22:03:44.432Z,100714.06
2022-10-28T22:06:12.519Z,100717.97
2022-10-28T22:08:40.629Z,100720.44
2022-10-28T22:11:09.321Z,100728.25
2022-10-28T22:13:39.936Z,100731.16
2022-10-28T22:16:08.860Z,100729.97
2022-10-28T22:18:39.565Z,100729.00
2022-10-28T22:21:11.242Z,100729.44
2022-10-28T22:23:39.719Z,100739.13
2022-10-28T22:26:08.190Z,100729.81
2022-10-28T22:28:36.186Z,100731.91
2022-10-28T22:31:07.207Z,100730.81
2022-10-28T22:33:35.137Z,100723.66
2022-10-28T22:36:04.042Z,100727.03
2022-10-28T22:38:33.427Z,100728.19
2022-10-28T22:41:05.638Z,100735.84
2022-10-28T22:43:36.632Z,100726.38
2022-10-28T22:46:04.832Z,100717.97
2022-10-28T22:48:32.852Z,100711.47
2022-10-28T22:51:01.059Z,100711.16
2022-10-28T22:53:28.873Z,100708.22
2022-10-28T22:55:58.197Z,100700.00
2022-10-28T22:58:27.725Z,100700.50
2022-10-28T23:01:05.042Z,100693.94
2022-10-28T23:03:35.791Z,100699.75
2022-10-28T23:06:03.602Z,100695.34
2022-10-28T23:08:31.326Z,100702.31
2022-10-28T23:11:00.429Z,100699.19
2022-10-28T23:13:28.415Z,100703.66
2022-10-28T23:15:56.446Z,100705.19
2022-10-28T23:18:27.146Z,100699.94
2022-10-28T23:20:54.984Z,100691.63
2022-10-28T23:23:25.377Z,100692.59
2022-10-28T23:25:53.710Z,100693.50
2022-10-28T23:28:22.847Z,100684.91
2022-10-28T23:30:50.602Z,100686.16
2022-10-28T23:33:18.522Z,100685.28
2022-10-28T23:35:46.409Z,100695.53
2022-10-28T23:38:16.618Z,100704.69
2022-10-28T23:40:44.625Z,100705.31
2022-10-28T23:43:12.750Z,100711.44
2022-10-28T23:45:41.836Z,100716.47
2022-10-28T23:48:09.672Z,100712.97
2022-10-28T23:50:37.477Z,100716.66
2022-10-28T23:53:05.630Z,100704.94
2022-10-28T23:55:33.471Z,100721.75
2022-10-28T23:58:01.957Z,100719.09
